Lockport-Weather Station Historical Data
Daily Summary for September 3, 2020 Units:  English    Metric   Both
Daily Weekly Monthly Yearly Custom
  High: Low: Average:
Temperature: 43.4 °F 36.3 °F 39.7 °F
Dew Point: 33.6 °F 23.3 °F 29 °F
Humidity: 85% 47.4% 66%
Wind Speed: 10.1mph 2.3mph 6.4mph
Wind Gust: 25mph - -
Wind- - SW
Pressure: 30.09 in 29.96 in -
Precipitation: 0.18 in    
 
 
Tabular Data for September 3, 2020
Time Temperature Dew Point Pressure Wind Wind Speed Wind Gust Humidity Rainfall Rate (Hourly) solar
00:04 36.8 °F 31.4 °F 30.09 in SW 6.6 mph 12 mph 80.7% 0.00 in W/m2
00:09 37.1 °F 32.2 °F 30.08 in SW 6 mph 12 mph 82.4% 0.00 in W/m2
00:14 37.3 °F 32.6 °F 30.08 in SW 6.1 mph 12 mph 83% 0.00 in W/m2
00:19 37.5 °F 33.1 °F 30.08 in SW 5.9 mph 12 mph 84% 0.00 in W/m2
00:24 37.7 °F 33.3 °F 30.08 in SW 4.9 mph 12 mph 84% 0.00 in W/m2
00:29 37.7 °F 33.4 °F 30.08 in SSW 5.3 mph 15 mph 84.3% 0.00 in W/m2
00:34 37.7 °F 33.6 °F 30.08 in SSW 4 mph 15 mph 84.9% 0.00 in W/m2
00:39 37.7 °F 33.6 °F 30.08 in SW 3.5 mph 15 mph 85% 0.00 in W/m2
00:44 37.6 °F 33.5 °F 30.08 in SW 4.8 mph 11 mph 85% 0.00 in W/m2
00:49 37.5 °F 33.4 °F 30.08 in SW 3.8 mph 11 mph 85% 0.00 in W/m2
00:54 37.5 °F 33.4 °F 30.08 in SW 3.5 mph 11 mph 85% 0.00 in W/m2
00:59 37.4 °F 33.3 °F 30.08 in SW 2.9 mph 7 mph 85% 0.00 in W/m2
01:04 37.3 °F 33.2 °F 30.07 in SW 3.7 mph 7 mph 85% 0.00 in W/m2
01:09 37.2 °F 33.1 °F 30.08 in SW 3.7 mph 9 mph 85% 0.00 in W/m2
01:14 37.1 °F 33 °F 30.08 in SW 2.6 mph 9 mph 85% 0.00 in W/m2
01:19 36.9 °F 32.8 °F 30.08 in WSW 4.7 mph 13 mph 85% 0.00 in W/m2
01:24 36.8 °F 32.3 °F 30.08 in WSW 4.7 mph 13 mph 83.7% 0.00 in W/m2
01:29 36.9 °F 31.9 °F 30.07 in SW 4.5 mph 13 mph 81.9% 0.00 in W/m2
01:34 37 °F 31.4 °F 30.08 in WSW 3.8 mph 10 mph 79.9% 0.00 in W/m2
01:39 37.1 °F 30.7 °F 30.08 in WSW 3.8 mph 10 mph 77.4% 0.00 in W/m2
01:44 37.2 °F 30.2 °F 30.08 in WSW 2.3 mph 10 mph 75.8% 0.00 in W/m2
01:49 37.2 °F 29.9 °F 30.08 in SW 3.9 mph 11 mph 74.4% 0.00 in W/m2
01:54 37.3 °F 29.3 °F 30.08 in WSW 3.3 mph 11 mph 72.7% 0.00 in W/m2
01:59 37.2 °F 28.7 °F 30.08 in WSW 4.7 mph 11 mph 71% 0.00 in W/m2
02:04 37.2 °F 28.3 °F 30.08 in WSW 2.7 mph 9 mph 69.7% 0.00 in W/m2
02:09 37.2 °F 28 °F 30.08 in SW 3.5 mph 9 mph 69% 0.00 in W/m2
02:14 37.2 °F 27.8 °F 30.08 in SW 3.8 mph 10 mph 68.6% 0.00 in W/m2
02:19 37.1 °F 27.3 °F 30.09 in SW 3.5 mph 10 mph 67.4% 0.00 in W/m2
02:24 37 °F 27.1 °F 30.08 in SW 3.5 mph 10 mph 67% 0.00 in W/m2
02:29 37 °F 26.8 °F 30.08 in SW 5.5 mph 11 mph 66.2% 0.00 in W/m2
02:34 37 °F 26.4 °F 30.08 in SW 5.3 mph 11 mph 65.2% 0.00 in W/m2
02:39 37 °F 25.9 °F 30.08 in SW 4.6 mph 11 mph 64% 0.00 in W/m2
02:44 37 °F 25.9 °F 30.08 in SW 5 mph 11 mph 63.7% 0.00 in W/m2
02:49 37.1 °F 25.7 °F 30.08 in WSW 5.7 mph 15 mph 63% 0.00 in W/m2
02:54 37.1 °F 25.5 °F 30.09 in WSW 3.9 mph 15 mph 62.7% 0.00 in W/m2
02:59 37 °F 25.3 °F 30.09 in SW 5.1 mph 15 mph 62.1% 0.00 in W/m2
03:04 36.9 °F 25.1 °F 30.08 in SW 5 mph 12 mph 62% 0.00 in W/m2
03:09 36.8 °F 24.6 °F 30.08 in SW 4 mph 12 mph 61% 0.00 in W/m2
03:14 36.7 °F 24.4 °F 30.08 in SW 5.3 mph 12 mph 60.7% 0.00 in W/m2
03:19 36.7 °F 24.2 °F 30.08 in SW 5.7 mph 13 mph 60.2% 0.00 in W/m2
03:24 36.7 °F 24.1 °F 30.08 in WSW 4.5 mph 13 mph 60% 0.00 in W/m2
03:29 36.7 °F 24.1 °F 30.08 in SW 3.8 mph 13 mph 60% 0.00 in W/m2
03:34 36.6 °F 24 °F 30.08 in WSW 4.4 mph 11 mph 60% 0.00 in W/m2
03:39 36.5 °F 23.9 °F 30.08 in SW 5.2 mph 13 mph 60% 0.00 in W/m2
03:44 36.6 °F 24 °F 30.08 in SW 3.8 mph 13 mph 60% 0.00 in W/m2
03:49 36.5 °F 23.9 °F 30.08 in WSW 3.8 mph 13 mph 60% 0.00 in W/m2
03:54 36.4 °F 23.8 °F 30.08 in SW 4.3 mph 11 mph 60% 0.00 in W/m2
03:59 36.4 °F 23.8 °F 30.08 in WSW 4.4 mph 9 mph 60% 0.00 in W/m2
04:04 36.3 °F 23.7 °F 30.08 in SW 4.2 mph 10 mph 60% 0.00 in W/m2
04:09 36.3 °F 23.7 °F 30.07 in WSW 5 mph 11 mph 60% 0.00 in W/m2
04:14 36.3 °F 23.6 °F 30.07 in SW 4 mph 11 mph 59.8% 0.00 in W/m2
04:19 36.3 °F 23.3 °F 30.07 in SW 5 mph 12 mph 59.2% 0.00 in W/m2
04:24 36.3 °F 23.6 °F 30.07 in SW 6 mph 12 mph 59.8% 0.00 in W/m2
04:29 36.4 °F 23.4 °F 30.06 in SW 6.7 mph 16 mph 58.9% 0.00 in W/m2
04:34 36.6 °F 23.3 °F 30.06 in SW 6.2 mph 16 mph 58.2% 0.00 in W/m2
04:39 36.9 °F 23.5 °F 30.06 in SW 6.6 mph 17 mph 58% 0.00 in W/m2
04:44 37 °F 23.6 °F 30.06 in SW 5.9 mph 17 mph 58% 0.00 in W/m2
04:49 37.1 °F 23.7 °F 30.06 in SW 7.4 mph 17 mph 58% 0.00 in W/m2
04:54 37.3 °F 23.9 °F 30.06 in SW 7.2 mph 15 mph 58% 0.00 in W/m2
04:59 37.4 °F 24.3 °F 30.06 in SW 6 mph 15 mph 58.8% 0.00 in W/m2
05:04 37.4 °F 24.7 °F 30.06 in SW 5.3 mph 14 mph 59.8% 0.00 in W/m2
05:09 37.4 °F 24.8 °F 30.06 in SW 6 mph 14 mph 60.2% 0.00 in W/m2
05:14 37.3 °F 25.1 °F 30.05 in SW 5.9 mph 13 mph 61% 0.00 in W/m2
05:19 37.2 °F 25.4 °F 30.05 in SW 7.4 mph 16 mph 62% 0.00 in W/m2
05:24 37.2 °F 25.7 °F 30.04 in SW 6.5 mph 16 mph 62.8% 0.00 in W/m2
05:29 37.2 °F 25.9 °F 30.04 in SW 6.5 mph 17 mph 63.5% 0.00 in W/m2
05:34 37.2 °F 26.1 °F 30.04 in SW 5.9 mph 17 mph 64% 0.00 in W/m2
05:39 37.2 °F 26.1 °F 30.04 in SW 6.3 mph 17 mph 64.1% 0.00 in W/m2
05:44 37.2 °F 26.5 °F 30.05 in SW 5.3 mph 15 mph 65% 0.00 in W/m2
05:49 37.1 °F 26.5 °F 30.05 in SW 5.4 mph 15 mph 65.2% 0.00 in W/m2
05:54 37.1 °F 26.8 °F 30.05 in SW 4.4 mph 15 mph 66% 0.00 in W/m2
05:59 37 °F 27 °F 30.06 in SW 4.5 mph 10 mph 66.7% 0.00 in W/m2
06:04 37 °F 27.8 °F 30.06 in SW 6.1 mph 11 mph 69.2% 0.00 in W/m2
06:09 37.1 °F 29.1 °F 30.06 in SW 6.1 mph 13 mph 72.6% 0.00 in W/m2
06:14 37.3 °F 30.3 °F 30.06 in SW 6.4 mph 16 mph 75.8% 0.00 in W/m2
06:19 37.5 °F 31.2 °F 30.07 in SW 6.2 mph 16 mph 77.7% 0.00 in W/m2
06:24 37.7 °F 31.6 °F 30.07 in SW 6.8 mph 16 mph 78.4% 0.00 in W/m2
06:29 37.7 °F 32 °F 30.07 in SW 7.9 mph 17 mph 79.5% 0.00 in W/m2
06:34 37.9 °F 32.3 °F 30.07 in SW 8.4 mph 18 mph 80% 0.00 in W/m2
06:39 38 °F 32.4 °F 30.07 in SW 7.1 mph 19 mph 80% 0.00 in W/m2
06:44 38 °F 32.4 °F 30.07 in SW 7.2 mph 19 mph 80% 0.00 in W/m2
06:49 38 °F 32.4 °F 30.07 in SW 6.6 mph 19 mph 80% 0.00 in W/m2
06:54 38 °F 32.4 °F 30.07 in SW 6.8 mph 15 mph 80% 0.00 in W/m2
06:59 38 °F 32.4 °F 30.07 in SW 5.9 mph 14 mph 80% 0.00 in W/m2
07:04 38 °F 32.4 °F 30.08 in SW 5.9 mph 14 mph 80% 0.00 in W/m2
07:09 37.9 °F 32.3 °F 30.08 in SW 5.5 mph 14 mph 80% 0.00 in W/m2
07:14 37.9 °F 32.3 °F 30.08 in SW 5.2 mph 14 mph 80% 0.00 in W/m2
07:19 37.8 °F 32.5 °F 30.08 in SW 5.5 mph 14 mph 80.9% 0.00 in W/m2
07:24 37.8 °F 32.5 °F 30.08 in SW 6.2 mph 14 mph 81% 0.00 in W/m2
07:29 37.7 °F 32.4 °F 30.08 in SW 5.7 mph 15 mph 81% 0.00 in W/m2
07:34 37.7 °F 32.4 °F 30.09 in SW 6 mph 15 mph 81% 0.00 in W/m2
07:39 37.7 °F 32.4 °F 30.08 in SW 4.8 mph 15 mph 81% 0.00 in W/m2
07:44 37.7 °F 32.5 °F 30.08 in SW 5.2 mph 14 mph 81.3% 0.00 in W/m2
07:49 37.6 °F 32.6 °F 30.08 in SW 5.5 mph 14 mph 82% 0.00 in W/m2
07:54 37.6 °F 32.6 °F 30.08 in SW 6 mph 14 mph 82% 0.00 in W/m2
07:59 37.6 °F 32.6 °F 30.08 in SW 6.1 mph 13 mph 82% 0.00 in W/m2
08:04 37.6 °F 32.6 °F 30.08 in SW 6.6 mph 14 mph 82% 0.00 in W/m2
08:09 37.6 °F 32.6 °F 30.08 in SW 6.6 mph 17 mph 82% 0.00 in W/m2
08:14 37.7 °F 32.7 °F 30.08 in SW 5.8 mph 17 mph 82% 0.00 in W/m2
08:19 37.7 °F 32.8 °F 30.08 in SW 6.7 mph 17 mph 82.5% 0.00 in W/m2
08:24 37.7 °F 33 °F 30.08 in SW 6.6 mph 15 mph 83% 0.00 in W/m2
08:29 37.8 °F 33 °F 30.08 in SW 5 mph 15 mph 82.6% 0.00 in W/m2
08:34 37.9 °F 32.9 °F 30.08 in SW 6.6 mph 17 mph 82% 0.01 in W/m2
08:39 38 °F 33 °F 30.08 in SW 6.5 mph 17 mph 82% 0.01 in W/m2
08:44 38.1 °F 33.1 °F 30.08 in SW 7.6 mph 17 mph 82% 0.01 in W/m2
08:49 38.1 °F 33.1 °F 30.08 in SW 7 mph 17 mph 82% 0.01 in W/m2
08:54 38.3 °F 33.3 °F 30.08 in SW 7.7 mph 17 mph 82% 0.01 in W/m2
08:59 38.4 °F 33.2 °F 30.08 in SW 6.6 mph 17 mph 81.4% 0.02 in W/m2
09:04 38.5 °F 33.2 °F 30.08 in SW 7.2 mph 17 mph 81% 0.02 in W/m2
09:09 38.6 °F 33.1 °F 30.08 in SW 7 mph 16 mph 80.3% 0.02 in W/m2
09:14 38.6 °F 32.8 °F 30.08 in SW 7.8 mph 16 mph 79.5% 0.02 in W/m2
09:19 38.5 °F 32.3 °F 30.08 in SW 8.7 mph 16 mph 78.3% 0.03 in W/m2
09:24 38.4 °F 31.9 °F 30.08 in SW 6.5 mph 16 mph 77.2% 0.03 in W/m2
09:29 38.3 °F 31.7 °F 30.08 in SW 8 mph 17 mph 77% 0.04 in W/m2
09:34 38.3 °F 31.7 °F 30.09 in SW 7.8 mph 17 mph 77% 0.03 in W/m2
09:39 38.3 °F 31.6 °F 30.09 in SW 9.2 mph 17 mph 76.6% 0.03 in W/m2
09:44 38.4 °F 31.5 °F 30.09 in SW 8.4 mph 18 mph 76% 0.03 in W/m2
09:49 38.4 °F 31.5 °F 30.09 in SW 8.5 mph 18 mph 76% 0.04 in W/m2
09:54 38.5 °F 31.6 °F 30.09 in SW 8.6 mph 19 mph 76% 0.04 in W/m2
09:59 38.5 °F 31.6 °F 30.09 in SW 8.8 mph 19 mph 76% 0.04 in W/m2
10:04 38.5 °F 31.6 °F 30.09 in SW 8.7 mph 19 mph 76% 0.04 in W/m2
10:09 38.5 °F 31.6 °F 30.09 in SW 8.3 mph 18 mph 76% 0.04 in W/m2
10:14 38.6 °F 31.7 °F 30.09 in SW 8.7 mph 18 mph 76% 0.05 in W/m2
10:19 38.7 °F 31.8 °F 30.09 in SW 8 mph 18 mph 76% 0.04 in W/m2
10:24 38.7 °F 31.8 °F 30.09 in SW 7.7 mph 22 mph 76% 0.05 in W/m2
10:29 38.8 °F 31.8 °F 30.09 in SW 8.7 mph 22 mph 75.7% 0.05 in W/m2
10:34 38.8 °F 31.6 °F 30.09 in SW 9 mph 22 mph 75% 0.04 in W/m2
10:39 38.9 °F 31.6 °F 30.09 in SW 6.9 mph 20 mph 75% 0.05 in W/m2
10:44 38.8 °F 31.6 °F 30.09 in SW 8.2 mph 21 mph 74.9% 0.05 in W/m2
10:49 38.9 °F 31.3 °F 30.09 in SW 8.3 mph 21 mph 74% 0.05 in W/m2
10:54 39 °F 31.4 °F 30.08 in SW 6.6 mph 21 mph 74% 0.05 in W/m2
10:59 39.2 °F 31.5 °F 30.08 in SW 8.9 mph 23 mph 73.8% 0.05 in W/m2
11:04 39.5 °F 31.6 °F 30.08 in SW 6.4 mph 23 mph 73% 0.05 in W/m2
11:09 39.8 °F 31.8 °F 30.08 in SW 6.8 mph 23 mph 73% 0.06 in W/m2
11:14 39.7 °F 31.4 °F 30.08 in SW 7.1 mph 15 mph 72% 0.05 in W/m2
11:19 39.7 °F 31.4 °F 30.07 in SW 7.2 mph 15 mph 72% 0.06 in W/m2
11:24 39.8 °F 31.5 °F 30.07 in SW 9.3 mph 18 mph 72% 0.06 in W/m2
11:29 39.8 °F 31.5 °F 30.07 in SW 8.9 mph 25 mph 72% 0.06 in W/m2
11:34 39.8 °F 31.5 °F 30.07 in SW 8.4 mph 25 mph 72% 0.06 in W/m2
11:39 40 °F 31.5 °F 30.07 in SW 7.6 mph 25 mph 71.3% 0.05 in W/m2
11:44 40.1 °F 31.5 °F 30.06 in SW 7.7 mph 18 mph 71.3% 0.06 in W/m2
11:49 40.1 °F 31.4 °F 30.07 in SW 8.4 mph 17 mph 71% 0.05 in W/m2
11:54 40.3 °F 31.6 °F 30.06 in SW 6.1 mph 17 mph 71% 0.05 in W/m2
11:59 40.6 °F 31.8 °F 30.06 in SW 7.3 mph 17 mph 70.9% 0.06 in W/m2
12:04 40.8 °F 31.9 °F 30.06 in SW 8.3 mph 16 mph 70.2% 0.05 in W/m2
12:09 40.9 °F 31.9 °F 30.05 in SW 7.7 mph 17 mph 70% 0.05 in W/m2
12:14 41.1 °F 32 °F 30.05 in SW 8.2 mph 18 mph 69.7% 0.04 in W/m2
12:19 41.4 °F 32.1 °F 30.04 in SW 7.9 mph 18 mph 69.2% 0.04 in W/m2
12:24 41.6 °F 32.2 °F 30.04 in SW 8.3 mph 20 mph 69% 0.03 in W/m2
12:29 41.7 °F 32.1 °F 30.04 in SW 10.1 mph 23 mph 68.6% 0.03 in W/m2
12:34 41.4 °F 31.9 °F 30.04 in SW 9.5 mph 23 mph 68.7% 0.02 in W/m2
12:39 41.8 °F 32 °F 30.04 in SW 9.2 mph 23 mph 68.1% 0.03 in W/m2
12:44 42.1 °F 31.8 °F 30.04 in SW 10.1 mph 24 mph 66.8% 0.03 in W/m2
12:49 42.3 °F 31.9 °F 30.04 in SW 9.3 mph 25 mph 66.5% 0.03 in W/m2
12:54 42.5 °F 32.1 °F 30.04 in SW 8.3 mph 25 mph 66.3% 0.03 in W/m2
12:59 42.6 °F 32 °F 30.04 in SW 7.4 mph 25 mph 66% 0.02 in W/m2
13:04 42.5 °F 32.3 °F 30.04 in SW 7.3 mph 16 mph 66.9% 0.02 in W/m2
13:09 42.6 °F 32.4 °F 30.04 in SW 8 mph 18 mph 67% 0.02 in W/m2
13:14 42.8 °F 32.6 °F 30.04 in SW 9 mph 20 mph 67% 0.02 in W/m2
13:19 42.5 °F 32.4 °F 30.04 in SW 6.8 mph 20 mph 67.2% 0.02 in W/m2
13:24 42.6 °F 32.7 °F 30.04 in SW 9.7 mph 20 mph 67.9% 0.02 in W/m2
13:29 42.9 °F 32.5 °F 30.04 in SW 9.7 mph 22 mph 66.4% 0.02 in W/m2
13:34 43 °F 32.4 °F 30.04 in SW 8.1 mph 22 mph 66% 0.02 in W/m2
13:39 43.2 °F 32.6 °F 30.03 in SW 7.3 mph 22 mph 66% 0.01 in W/m2
13:44 43.2 °F 32.6 °F 30.03 in SW 7 mph 18 mph 65.8% 0.01 in W/m2
13:49 43.3 °F 32.4 °F 30.03 in SW 5.9 mph 17 mph 65.2% 0.00 in W/m2
13:54 43.4 °F 32.4 °F 30.03 in SW 8.3 mph 17 mph 65% 0.00 in W/m2
13:59 43.4 °F 32.3 °F 30.03 in SW 7.1 mph 15 mph 64.9% 0.00 in W/m2
14:04 43.2 °F 31.9 °F 30.03 in SW 8.6 mph 21 mph 64.2% 0.00 in W/m2
14:09 43.2 °F 31.9 °F 30.02 in SW 7.4 mph 21 mph 64.3% 0.00 in W/m2
14:14 43.2 °F 32.1 °F 30.02 in SW 7 mph 21 mph 64.8% 0.00 in W/m2
14:19 43.3 °F 32.3 °F 30.03 in SW 7.7 mph 19 mph 65% 0.00 in W/m2
14:24 43.3 °F 32 °F 30.03 in SW 8.2 mph 19 mph 64.1% 0.00 in W/m2
14:29 43.4 °F 31.8 °F 30.03 in SW 9.1 mph 19 mph 63.7% 0.00 in W/m2
14:34 43.4 °F 32 °F 30.03 in SW 7.6 mph 18 mph 64% 0.00 in W/m2
14:39 43.4 °F 31.7 °F 30.03 in SW 8.3 mph 18 mph 63.2% 0.00 in W/m2
14:44 43.4 °F 31.6 °F 30.03 in SW 7.9 mph 20 mph 63% 0.00 in W/m2
14:49 43.4 °F 31.4 °F 30.03 in SW 7.4 mph 20 mph 62.4% 0.00 in W/m2
14:54 43.4 °F 31.2 °F 30.03 in SW 9.3 mph 21 mph 62% 0.00 in W/m2
14:59 43.3 °F 31.2 °F 30.03 in SW 8.6 mph 21 mph 62% 0.00 in W/m2
15:04 43.3 °F 31.1 °F 30.03 in SW 6.5 mph 21 mph 62% 0.00 in W/m2
15:09 43.3 °F 31.1 °F 30.03 in SW 6.6 mph 17 mph 62% 0.00 in W/m2
15:14 43.4 °F 31.1 °F 30.02 in SW 7.4 mph 17 mph 61.7% 0.00 in W/m2
15:19 43.3 °F 30.3 °F 30.02 in SW 8.2 mph 19 mph 60.1% 0.00 in W/m2
15:24 43.1 °F 30.1 °F 30.02 in SW 8.9 mph 21 mph 60% 0.00 in W/m2
15:29 43.1 °F 30 °F 30.02 in SW 7 mph 21 mph 59.8% 0.00 in W/m2
15:34 43 °F 29.6 °F 30.01 in SW 9.8 mph 21 mph 59% 0.00 in W/m2
15:39 42.9 °F 29.4 °F 30.01 in SW 8.1 mph 20 mph 58.7% 0.00 in W/m2
15:44 42.8 °F 29 °F 30.01 in SSW 9 mph 20 mph 57.9% 0.00 in W/m2
15:49 42.8 °F 28.6 °F 30.01 in SW 7 mph 20 mph 57.2% 0.00 in W/m2
15:54 42.6 °F 28.2 °F 30.01 in SW 7.8 mph 20 mph 56.6% 0.00 in W/m2
15:59 42.5 °F 27.8 °F 30.01 in SW 7.6 mph 22 mph 55.7% 0.00 in W/m2
16:04 42.4 °F 27.8 °F 30.01 in SW 6 mph 22 mph 55.9% 0.00 in W/m2
16:09 42.3 °F 27.6 °F 30.01 in SW 6.9 mph 22 mph 55.8% 0.00 in W/m2
16:14 42.2 °F 27.3 °F 30.01 in SW 8.1 mph 17 mph 55.2% 0.00 in W/m2
16:19 42.2 °F 26.7 °F 30.01 in SW 7.4 mph 17 mph 53.9% 0.00 in W/m2
16:24 42.2 °F 26.3 °F 30.01 in SW 7.4 mph 17 mph 53.1% 0.00 in W/m2
16:29 42.2 °F 26.2 °F 30.00 in SW 7.1 mph 15 mph 52.8% 0.00 in W/m2
16:34 42 °F 26.1 °F 30.00 in SSW 6.1 mph 14 mph 52.8% 0.00 in W/m2
16:39 41.9 °F 26 °F 30.00 in SW 6.1 mph 14 mph 53% 0.00 in W/m2
16:44 41.8 °F 25.7 °F 30.00 in SW 5.6 mph 13 mph 52.5% 0.00 in W/m2
16:49 41.7 °F 25.8 °F 30.00 in SW 5 mph 13 mph 52.9% 0.00 in W/m2
16:54 41.7 °F 25.5 °F 30.00 in SW 6 mph 15 mph 52.2% 0.00 in W/m2
16:59 41.8 °F 25.2 °F 30.00 in SW 6.4 mph 15 mph 51.6% 0.00 in W/m2
17:04 42 °F 25 °F 30.00 in SW 5.6 mph 15 mph 50.7% 0.00 in W/m2
17:09 42 °F 25.2 °F 30.00 in SSW 4.3 mph 13 mph 51% 0.00 in W/m2
17:14 42 °F 25.1 °F 30.00 in SW 6.5 mph 13 mph 50.8% 0.00 in W/m2
17:19 42.2 °F 24.1 °F 30.00 in SW 6.7 mph 18 mph 48.3% 0.00 in W/m2
17:24 42.3 °F 23.9 °F 30.00 in SW 5.5 mph 18 mph 47.8% 0.00 in W/m2
17:29 42.2 °F 23.6 °F 30.00 in SW 6.6 mph 18 mph 47.4% 0.00 in W/m2
17:34 42.1 °F 23.9 °F 30.00 in SW 5.6 mph 14 mph 48.2% 0.00 in W/m2
17:39 42 °F 23.5 °F 30.00 in SW 6.6 mph 14 mph 47.6% 0.00 in W/m2
17:44 41.9 °F 23.9 °F 30.00 in SSW 5.8 mph 13 mph 48.6% 0.00 in W/m2
17:49 41.7 °F 24.1 °F 30.00 in SW 5 mph 13 mph 49.3% 0.00 in W/m2
17:54 41.5 °F 24.1 °F 29.99 in SW 5.5 mph 14 mph 49.7% 0.00 in W/m2
17:59 41.6 °F 24.3 °F 30.00 in SW 5.9 mph 16 mph 50.1% 0.00 in W/m2
18:04 41.5 °F 24.5 °F 30.00 in SW 6.5 mph 16 mph 50.7% 0.00 in W/m2
18:09 41.5 °F 24.7 °F 30.00 in SW 5.5 mph 16 mph 50.9% 0.00 in W/m2
18:14 41.3 °F 25 °F 30.00 in SW 6.1 mph 14 mph 52% 0.00 in W/m2
18:19 41.2 °F 25 °F 30.00 in SSW 5.7 mph 14 mph 52.2% 0.00 in W/m2
18:24 41 °F 25.3 °F 30.00 in SW 5.5 mph 14 mph 53.2% 0.00 in W/m2
18:29 40.8 °F 25.4 °F 30.00 in SW 4.6 mph 14 mph 53.8% 0.00 in W/m2
18:34 40.8 °F 25.3 °F 30.00 in SW 5.9 mph 14 mph 53.8% 0.00 in W/m2
18:39 40.8 °F 25.4 °F 30.00 in SW 5.7 mph 13 mph 54% 0.00 in W/m2
18:44 40.9 °F 25.4 °F 30.00 in SSW 6.8 mph 16 mph 53.8% 0.00 in W/m2
18:49 40.9 °F 25.5 °F 30.00 in SSW 4.4 mph 16 mph 54.1% 0.00 in W/m2
18:54 40.8 °F 25.6 °F 30.00 in SSW 5.1 mph 16 mph 54.5% 0.00 in W/m2
18:59 40.7 °F 25.7 °F 30.00 in SSW 6 mph 14 mph 54.8% 0.00 in W/m2
19:04 40.7 °F 25.6 °F 30.00 in SSW 6 mph 18 mph 54.6% 0.00 in W/m2
19:09 40.7 °F 25.3 °F 30.00 in SW 6.9 mph 18 mph 54% 0.00 in W/m2
19:14 40.7 °F 25.3 °F 30.00 in SW 7.5 mph 18 mph 54% 0.00 in W/m2
19:19 40.6 °F 24.9 °F 30.00 in SSW 7.1 mph 16 mph 53.2% 0.00 in W/m2
19:24 40.5 °F 24.3 °F 30.00 in SW 8.8 mph 16 mph 52.3% 0.00 in W/m2
19:29 40.4 °F 24.2 °F 30.00 in SW 8.9 mph 18 mph 52.2% 0.00 in W/m2
19:34 40.3 °F 24.5 °F 29.99 in SSW 7 mph 18 mph 53% 0.00 in W/m2
19:39 40.1 °F 24.8 °F 29.99 in SW 6.3 mph 18 mph 54% 0.00 in W/m2
19:44 40 °F 25.1 °F 29.99 in SSW 6.5 mph 17 mph 55% 0.00 in W/m2
19:49 39.9 °F 25.4 °F 30.00 in SW 6 mph 17 mph 55.8% 0.00 in W/m2
19:54 40 °F 25.6 °F 30.00 in SW 6.2 mph 17 mph 56% 0.00 in W/m2
19:59 40 °F 25.9 °F 29.99 in SW 5.7 mph 14 mph 56.7% 0.00 in W/m2
20:04 40.1 °F 25.9 °F 30.00 in SW 7.2 mph 14 mph 56.7% 0.00 in W/m2
20:09 40.2 °F 25.7 °F 29.99 in SW 8.3 mph 15 mph 56% 0.00 in W/m2
20:14 40.3 °F 25.8 °F 29.99 in SW 5.5 mph 15 mph 56% 0.00 in W/m2
20:19 40.4 °F 25.9 °F 29.99 in SW 6.7 mph 15 mph 56% 0.00 in W/m2
20:24 40.4 °F 25.9 °F 29.99 in SSW 5.6 mph 14 mph 56% 0.00 in W/m2
20:29 40.5 °F 26 °F 29.99 in SW 7.9 mph 20 mph 56% 0.00 in W/m2
20:34 40.6 °F 26.1 °F 29.99 in SW 6.1 mph 20 mph 56% 0.00 in W/m2
20:39 40.7 °F 26.2 °F 29.99 in SSW 7.1 mph 20 mph 56% 0.00 in W/m2
20:44 40.7 °F 26.4 °F 29.99 in SW 7.7 mph 20 mph 56.5% 0.00 in W/m2
20:49 40.8 °F 26.7 °F 29.99 in SW 6.4 mph 20 mph 56.8% 0.00 in W/m2
20:54 40.9 °F 26.8 °F 29.99 in SW 5.8 mph 18 mph 57.1% 0.00 in W/m2
20:59 40.9 °F 27 °F 29.99 in SW 6.3 mph 17 mph 57.5% 0.00 in W/m2
21:04 40.9 °F 27.1 °F 29.98 in SW 6.2 mph 12 mph 57.8% 0.00 in W/m2
21:09 40.9 °F 27.2 °F 29.98 in SW 5.1 mph 12 mph 58% 0.00 in W/m2
21:14 40.9 °F 27.3 °F 29.98 in SW 4.7 mph 12 mph 58.2% 0.00 in W/m2
21:19 40.9 °F 27.5 °F 29.98 in SW 6.1 mph 13 mph 58.7% 0.00 in W/m2
21:24 41.1 °F 27.8 °F 29.98 in SW 5.7 mph 13 mph 58.8% 0.00 in W/m2
21:29 41.1 °F 27.9 °F 29.98 in SW 6.4 mph 13 mph 59% 0.00 in W/m2
21:34 41.1 °F 27.9 °F 29.98 in SW 5.5 mph 12 mph 59% 0.00 in W/m2
21:39 41.1 °F 28.3 °F 29.98 in SW 5.6 mph 12 mph 59.9% 0.00 in W/m2
21:44 41.2 °F 28.3 °F 29.98 in SW 7.2 mph 15 mph 59.8% 0.00 in W/m2
21:49 41.3 °F 28.2 °F 29.98 in SW 6.3 mph 15 mph 59.5% 0.00 in W/m2
21:54 41.3 °F 28.4 °F 29.98 in SW 5 mph 15 mph 60% 0.00 in W/m2
21:59 41.2 °F 28.4 °F 29.98 in SW 5.4 mph 13 mph 60% 0.00 in W/m2
22:04 41.2 °F 28.5 °F 29.98 in SW 5.3 mph 13 mph 60.3% 0.00 in W/m2
22:09 41.1 °F 28.5 °F 29.98 in SW 5.7 mph 14 mph 60.6% 0.00 in W/m2
22:14 41 °F 28.3 °F 29.98 in SW 6.5 mph 15 mph 60.2% 0.00 in W/m2
22:19 41 °F 28.2 °F 29.97 in SW 6.7 mph 20 mph 60% 0.00 in W/m2
22:24 41 °F 28.2 °F 29.97 in SW 5.7 mph 20 mph 60% 0.00 in W/m2
22:29 40.9 °F 28.5 °F 29.97 in SW 4.7 mph 20 mph 61% 0.00 in W/m2
22:34 40.8 °F 28.4 °F 29.97 in SW 4.7 mph 13 mph 61.1% 0.00 in W/m2
22:39 40.7 °F 28.7 °F 29.97 in SW 5.5 mph 11 mph 62% 0.00 in W/m2
22:44 40.7 °F 28.7 °F 29.97 in SW 5.5 mph 13 mph 62% 0.00 in W/m2
22:49 40.8 °F 28.8 °F 29.97 in SW 5.8 mph 13 mph 62% 0.00 in W/m2
22:54 40.9 °F 28.9 °F 29.97 in SSW 5.1 mph 13 mph 62% 0.00 in W/m2
22:59 40.9 °F 28.9 °F 29.97 in SSW 4.9 mph 11 mph 62% 0.00 in W/m2
23:04 40.9 °F 29.2 °F 29.97 in SW 4.1 mph 10 mph 62.8% 0.00 in W/m2
23:09 40.9 °F 29.3 °F 29.96 in SW 4.6 mph 9 mph 63% 0.00 in W/m2
23:14 40.9 °F 29.3 °F 29.97 in SW 4.8 mph 12 mph 63% 0.00 in W/m2
23:19 41.1 °F 29.5 °F 29.97 in SW 5.4 mph 12 mph 63% 0.00 in W/m2
23:24 41.2 °F 29.5 °F 29.97 in SW 7.2 mph 15 mph 63% 0.00 in W/m2
23:29 41.4 °F 29.4 °F 29.97 in SW 6.1 mph 15 mph 62.3% 0.00 in W/m2
23:34 41.5 °F 29.4 °F 29.97 in SW 5.3 mph 15 mph 62% 0.00 in W/m2
23:39 41.5 °F 29.4 °F 29.97 in SW 5.2 mph 12 mph 62% 0.00 in W/m2
23:44 41.5 °F 29.4 °F 29.96 in SW 4.4 mph 12 mph 62.1% 0.00 in W/m2
23:49 41.5 °F 29.5 °F 29.97 in SSW 7.4 mph 19 mph 62.2% 0.00 in W/m2
23:54 41.5 °F 29.4 °F 29.96 in SW 7.3 mph 19 mph 62% 0.00 in W/m2
23:59 41.5 °F 29.4 °F 29.96 in SW 5.9 mph 19 mph 62% 0.00 in W/m2
Lockport, New York, USA
Compliments of Weather Underground - 2.75 mb